createdAt,value
2022-09-02T00:00:45.296Z,101659.50
2022-09-02T00:03:12.996Z,101656.25
2022-09-02T00:05:39.960Z,101651.91
2022-09-02T00:08:07.061Z,101657.69
2022-09-02T00:10:36.019Z,101655.78
2022-09-02T00:13:02.781Z,101655.78
2022-09-02T00:15:29.581Z,101646.69
2022-09-02T00:17:56.201Z,101645.84
2022-09-02T00:20:25.685Z,101643.59
2022-09-02T00:22:52.277Z,101643.19
2022-09-02T00:25:18.877Z,101647.44
2022-09-02T00:27:45.488Z,101645.56
2022-09-02T00:30:12.905Z,101642.00
2022-09-02T00:32:39.413Z,101642.47
2022-09-02T00:35:06.639Z,101635.44
2022-09-02T00:37:33.172Z,101644.72
2022-09-02T00:39:59.714Z,101634.97
2022-09-02T00:42:26.577Z,101633.84
2022-09-02T00:44:53.836Z,101636.63
2022-09-02T00:47:20.522Z,101631.44
2022-09-02T00:49:50.209Z,101634.34
2022-09-02T00:52:24.857Z,101637.34
2022-09-02T00:55:30.178Z,101618.34
2022-09-02T00:58:05.120Z,101624.81
2022-09-02T01:00:42.959Z,101625.00
2022-09-02T01:03:13.291Z,101623.59
2022-09-02T01:05:46.759Z,101628.63
2022-09-02T01:08:15.832Z,101623.47
2022-09-02T01:10:43.088Z,101622.03
2022-09-02T01:13:15.544Z,101621.19
2022-09-02T01:15:49.292Z,101619.72
2022-09-02T01:18:25.189Z,101611.63
2022-09-02T01:20:52.319Z,101620.81
2022-09-02T01:23:19.232Z,101608.00
2022-09-02T01:25:47.054Z,101614.28
2022-09-02T01:28:17.238Z,101613.34
2022-09-02T01:30:48.379Z,101614.19
2022-09-02T01:33:15.622Z,101614.69
2022-09-02T01:35:43.280Z,101614.75
2022-09-02T01:38:10.787Z,101607.97
2022-09-02T01:40:37.490Z,101610.34
2022-09-02T01:43:14.505Z,101607.03
2022-09-02T01:45:43.609Z,101613.81
2022-09-02T01:48:13.004Z,101600.50
2022-09-02T01:50:47.025Z,101608.91
2022-09-02T01:53:15.177Z,101611.38
2022-09-02T01:55:42.028Z,101600.84
2022-09-02T01:58:08.652Z,101598.34
2022-09-02T02:00:35.661Z,101599.31
2022-09-02T02:03:02.460Z,101601.97
2022-09-02T02:05:31.096Z,101595.63
2022-09-02T02:07:58.151Z,101602.84
2022-09-02T02:10:24.761Z,101593.25
2022-09-02T02:12:51.558Z,101597.94
2022-09-02T02:17:49.282Z,101599.31
2022-09-02T02:20:17.991Z,101600.16
2022-09-02T02:22:45.813Z,101589.69
2022-09-02T02:25:14.969Z,101597.44
2022-09-02T02:27:43.722Z,101594.16
2022-09-02T02:30:15.158Z,101596.97
2022-09-02T02:32:42.954Z,101581.69
2022-09-02T02:35:12.028Z,101588.34
2022-09-02T02:37:39.131Z,101590.31
2022-09-02T02:40:07.901Z,101585.31
2022-09-02T02:42:35.432Z,101590.31
2022-09-02T02:45:02.114Z,101588.41
2022-09-02T02:47:28.766Z,101586.69
2022-09-02T02:49:55.878Z,101585.84
2022-09-02T02:52:22.396Z,101579.28
2022-09-02T02:54:49.122Z,101578.38
2022-09-02T02:57:15.631Z,101579.28
2022-09-02T02:59:42.140Z,101574.53
2022-09-02T03:02:11.435Z,101568.72
2022-09-02T03:04:39.848Z,101575.66
2022-09-02T03:07:07.219Z,101573.13
2022-09-02T03:09:34.327Z,101569.84
2022-09-02T03:12:00.936Z,101573.75
2022-09-02T03:14:28.148Z,101579.28
2022-09-02T03:16:54.941Z,101574.56
2022-09-02T03:19:21.590Z,101576.50
2022-09-02T03:21:49.176Z,101573.19
2022-09-02T03:24:15.881Z,101581.22
2022-09-02T03:26:42.866Z,101576.22
2022-09-02T03:29:10.748Z,101578.72
2022-09-02T03:31:37.865Z,101574.00
2022-09-02T03:34:04.590Z,101575.94
2022-09-02T03:36:36.078Z,101567.06
2022-09-02T03:39:04.668Z,101568.44
2022-09-02T03:41:31.308Z,101569.00
2022-09-02T03:43:59.221Z,101567.97
2022-09-02T03:46:28.286Z,101570.69
2022-09-02T03:48:55.525Z,101558.50
2022-09-02T03:51:23.699Z,101572.09
2022-09-02T03:53:51.031Z,101552.97
2022-09-02T03:56:19.124Z,101560.47
2022-09-02T03:58:48.009Z,101562.41
2022-09-02T04:01:18.593Z,101555.22
2022-09-02T04:03:46.354Z,101551.88
2022-09-02T04:06:15.151Z,101558.00
2022-09-02T04:08:44.987Z,101550.50
2022-09-02T04:11:16.287Z,101545.78
2022-09-02T04:13:42.825Z,101551.88
2022-09-02T04:16:12.246Z,101545.00
2022-09-02T04:18:39.462Z,101549.69
2022-09-02T04:21:06.575Z,101546.66
2022-09-02T04:23:36.041Z,101543.31
2022-09-02T04:26:08.211Z,101541.38
2022-09-02T04:28:35.342Z,101541.13
2022-09-02T04:31:12.328Z,101540.56
2022-09-02T04:33:40.378Z,101538.06
2022-09-02T04:36:14.753Z,101539.44
2022-09-02T04:38:43.240Z,101528.91
2022-09-02T04:41:17.504Z,101523.41
2022-09-02T04:43:44.942Z,101522.03
2022-09-02T04:46:14.928Z,101531.69
2022-09-02T04:48:44.040Z,101525.91
2022-09-02T04:51:13.695Z,101539.94
2022-09-02T04:53:42.195Z,101525.63
2022-09-02T04:56:11.873Z,101539.94
2022-09-02T04:58:39.732Z,101522.28
2022-09-02T05:01:14.133Z,101539.44
2022-09-02T05:03:43.588Z,101526.69
2022-09-02T05:06:14.016Z,101535.56
2022-09-02T05:08:44.225Z,101534.47
2022-09-02T05:11:14.105Z,101534.44
2022-09-02T05:13:41.766Z,101539.16
2022-09-02T05:16:08.773Z,101537.72
2022-09-02T05:18:35.353Z,101540.00
2022-09-02T05:21:06.626Z,101539.72
2022-09-02T05:23:34.659Z,101538.06
2022-09-02T05:26:06.956Z,101534.41
2022-09-02T05:28:34.106Z,101538.59
2022-09-02T05:31:12.750Z,101545.81
2022-09-02T05:33:43.743Z,101542.22
2022-09-02T05:36:14.891Z,101540.84
2022-09-02T05:38:42.572Z,101548.81
2022-09-02T05:41:12.212Z,101545.47
2022-09-02T05:43:42.086Z,101534.47
2022-09-02T05:46:11.864Z,101539.72
2022-09-02T05:48:57.553Z,101542.72
2022-09-02T05:51:25.836Z,101532.53
2022-09-02T05:53:55.463Z,101535.84
2022-09-02T05:56:22.914Z,101535.00
2022-09-02T05:58:49.813Z,101535.00
2022-09-02T06:01:19.633Z,101539.44
2022-09-02T06:03:47.227Z,101537.47
2022-09-02T06:06:14.402Z,101540.75
2022-09-02T06:08:43.064Z,101536.13
2022-09-02T06:11:11.584Z,101536.69
2022-09-02T06:13:42.047Z,101542.19
2022-09-02T06:16:10.509Z,101539.72
2022-09-02T06:18:41.344Z,101525.56
2022-09-02T06:21:08.003Z,101533.91
2022-09-02T06:23:40.108Z,101540.00
2022-09-02T06:26:10.689Z,101540.00
2022-09-02T06:28:38.598Z,101535.81
2022-09-02T06:31:10.695Z,101543.84
2022-09-02T06:33:38.055Z,101520.31
2022-09-02T06:36:10.596Z,101531.94
2022-09-02T06:38:45.863Z,101537.22
2022-09-02T06:41:16.868Z,101526.44
2022-09-02T06:43:44.305Z,101528.91
2022-09-02T06:46:20.320Z,101532.53
2022-09-02T06:48:50.108Z,101524.78
2022-09-02T06:51:24.896Z,101529.19
2022-09-02T06:53:52.087Z,101525.34
2022-09-02T06:56:20.059Z,101521.47
2022-09-02T06:58:46.568Z,101525.63
2022-09-02T07:01:22.498Z,101528.66
2022-09-02T07:04:08.879Z,101521.75
2022-09-02T07:06:37.868Z,101520.34
2022-09-02T07:09:06.760Z,101522.00
2022-09-02T07:11:35.010Z,101514.00
2022-09-02T07:14:01.952Z,101507.38
2022-09-02T07:16:31.024Z,101520.06
2022-09-02T07:18:58.406Z,101509.56
2022-09-02T07:21:25.964Z,101508.75
2022-09-02T07:23:52.988Z,101508.44
2022-09-02T07:26:19.700Z,101510.97
2022-09-02T07:28:47.041Z,101511.22
2022-09-02T07:31:15.983Z,101519.25
2022-09-02T07:33:44.938Z,101506.22
2022-09-02T07:36:16.736Z,101507.59
2022-09-02T07:38:44.364Z,101511.75
2022-09-02T07:41:11.672Z,101502.63
2022-09-02T07:43:41.019Z,101514.50
2022-09-02T07:46:08.563Z,101506.78
2022-09-02T07:48:36.329Z,101503.19
2022-09-02T07:51:04.038Z,101508.41
2022-09-02T07:53:32.300Z,101500.94
2022-09-02T07:56:00.211Z,101500.66
2022-09-02T07:58:28.276Z,101501.47
2022-09-02T08:00:59.699Z,101513.38
2022-09-02T08:03:27.329Z,101506.19
2022-09-02T08:05:57.226Z,101511.41
2022-09-02T08:08:26.150Z,101513.09
2022-09-02T08:10:54.247Z,101506.13
2022-09-02T08:13:22.889Z,101503.63
2022-09-02T08:15:54.269Z,101502.78
2022-09-02T08:18:22.572Z,101498.66
2022-09-02T08:20:49.875Z,101498.13
2022-09-02T08:23:36.251Z,101505.84
2022-09-02T08:26:04.492Z,101496.97
2022-09-02T08:28:32.059Z,101492.78
2022-09-02T08:30:59.332Z,101494.44
2022-09-02T08:33:26.315Z,101494.97
2022-09-02T08:35:52.851Z,101480.00
2022-09-02T08:38:19.414Z,101484.38
2022-09-02T08:40:46.139Z,101474.94
2022-09-02T08:43:29.075Z,101484.31
2022-09-02T08:46:00.394Z,101483.72
2022-09-02T08:48:49.995Z,101487.06
2022-09-02T08:51:26.901Z,101483.09
2022-09-02T08:54:00.191Z,101476.97
2022-09-02T08:56:28.107Z,101479.72
2022-09-02T08:58:56.606Z,101474.75
2022-09-02T09:01:38.632Z,101486.34
2022-09-02T09:04:20.290Z,101481.84
2022-09-02T09:07:05.528Z,101492.38
2022-09-02T09:09:41.156Z,101479.59
2022-09-02T09:12:39.846Z,101488.41
2022-09-02T09:15:13.807Z,101483.94
2022-09-02T09:17:46.443Z,101477.81
2022-09-02T09:20:20.722Z,101483.59
2022-09-02T09:22:49.646Z,101482.16
2022-09-02T09:25:17.717Z,101475.50
2022-09-02T09:27:46.060Z,101475.97
2022-09-02T09:30:15.484Z,101484.78
2022-09-02T09:33:00.132Z,101484.50
2022-09-02T09:35:46.391Z,101483.22
2022-09-02T09:38:14.012Z,101469.28
2022-09-02T09:40:41.046Z,101466.75
2022-09-02T09:43:14.604Z,101462.81
2022-09-02T09:45:47.375Z,101465.78
2022-09-02T09:48:22.962Z,101464.88
2022-09-02T09:51:10.100Z,101467.03
2022-09-02T09:53:37.782Z,101465.53
2022-09-02T09:56:24.201Z,101461.66
2022-09-02T09:58:51.377Z,101456.53
2022-09-02T10:01:19.974Z,101460.00
2022-09-02T10:04:32.192Z,101468.00
2022-09-02T10:06:55.913Z,101454.50
2022-09-02T10:09:32.411Z,101453.53
2022-09-02T10:12:04.998Z,101450.44
2022-09-02T10:14:43.253Z,101448.88
2022-09-02T10:17:27.326Z,101444.09
2022-09-02T10:20:07.960Z,101446.84
2022-09-02T10:23:11.033Z,101437.31
2022-09-02T10:25:57.224Z,101429.53
2022-09-02T10:28:35.901Z,101432.25
2022-09-02T10:31:23.617Z,101427.25
2022-09-02T10:33:52.993Z,101419.44
2022-09-02T10:36:34.783Z,101415.44
2022-09-02T10:39:42.773Z,101412.50
2022-09-02T10:42:24.507Z,101416.41
2022-09-02T10:45:17.703Z,101414.38
2022-09-02T10:47:58.287Z,101416.84
2022-09-02T10:50:33.551Z,101411.91
2022-09-02T10:53:22.012Z,101416.63
2022-09-02T10:56:00.294Z,101417.97
2022-09-02T10:58:49.922Z,101410.75
2022-09-02T11:01:23.223Z,101396.56
2022-09-02T11:04:25.138Z,101399.06
2022-09-02T11:07:02.334Z,101385.78
2022-09-02T11:09:45.633Z,101388.03
2022-09-02T11:12:29.780Z,101386.97
2022-09-02T11:15:10.095Z,101385.78
2022-09-02T11:18:04.164Z,101378.97
2022-09-02T11:20:47.211Z,101381.06
2022-09-02T11:23:27.385Z,101376.84
2022-09-02T11:26:02.285Z,101369.13
2022-09-02T11:28:32.956Z,101362.78
2022-09-02T11:31:07.360Z,101359.00
2022-09-02T11:34:16.652Z,101354.31
2022-09-02T11:36:43.591Z,101361.94
2022-09-02T11:39:25.817Z,101357.69
2022-09-02T11:42:45.647Z,101352.59
2022-09-02T11:45:40.216Z,101358.69
2022-09-02T11:48:28.126Z,101350.94
2022-09-02T11:51:31.818Z,101359.19
2022-09-02T11:54:03.261Z,101349.53
2022-09-02T11:56:39.768Z,101348.88
2022-09-02T11:59:07.858Z,101340.81
2022-09-02T12:01:44.046Z,101341.31
2022-09-02T12:04:56.180Z,101342.34
2022-09-02T12:07:07.857Z,101337.69
2022-09-02T12:09:55.432Z,101339.97
2022-09-02T12:12:37.389Z,101342.75
2022-09-02T12:15:04.823Z,101329.16
2022-09-02T12:17:49.962Z,101326.66
2022-09-02T12:20:38.801Z,101333.94
2022-09-02T12:23:08.001Z,101327.19
2022-09-02T12:25:46.501Z,101326.16
2022-09-02T12:28:18.893Z,101323.50
2022-09-02T12:31:07.489Z,101323.16
2022-09-02T12:33:36.314Z,101319.03
2022-09-02T12:36:04.914Z,101305.31
2022-09-02T12:38:36.404Z,101310.44
2022-09-02T12:41:06.138Z,101315.53
2022-09-02T12:43:47.835Z,101302.13
2022-09-02T12:46:42.176Z,101305.22
2022-09-02T12:49:33.415Z,101305.84
2022-09-02T12:52:11.961Z,101297.91
2022-09-02T12:54:38.398Z,101287.34
2022-09-02T12:57:06.635Z,101296.31
2022-09-02T12:59:36.941Z,101291.88
2022-09-02T13:02:28.102Z,101295.09
2022-09-02T13:05:09.610Z,101291.56
2022-09-02T13:07:46.193Z,101285.94
2022-09-02T13:10:37.147Z,101275.91
2022-09-02T13:13:37.165Z,101278.66
2022-09-02T13:16:19.384Z,101272.34
2022-09-02T13:19:00.672Z,101275.38
2022-09-02T13:22:02.283Z,101269.31
2022-09-02T13:25:03.861Z,101275.75
2022-09-02T13:28:07.111Z,101275.16
2022-09-02T13:30:56.661Z,101273.16
2022-09-02T13:33:23.288Z,101270.66
2022-09-02T13:35:55.486Z,101271.59
2022-09-02T13:38:27.624Z,101262.16
2022-09-02T13:40:54.387Z,101279.81
2022-09-02T13:43:26.158Z,101273.66
2022-09-02T13:45:59.387Z,101271.03
2022-09-02T13:48:32.249Z,101266.44
2022-09-02T13:51:28.008Z,101258.41
2022-09-02T13:54:22.254Z,101257.34
2022-09-02T13:56:45.804Z,101254.53
2022-09-02T13:59:12.417Z,101240.56
2022-09-02T14:01:41.860Z,101251.19
2022-09-02T14:04:14.233Z,101252.28
2022-09-02T14:06:45.494Z,101239.84
2022-09-02T14:09:21.138Z,101238.69
2022-09-02T14:11:49.422Z,101237.53
2022-09-02T14:14:19.686Z,101231.66
2022-09-02T14:16:46.160Z,101233.78
2022-09-02T14:19:25.496Z,101239.63
2022-09-02T14:21:58.568Z,101229.78
2022-09-02T14:24:27.916Z,101227.38
2022-09-02T14:26:56.850Z,101220.00
2022-09-02T14:29:24.639Z,101215.81
2022-09-02T14:32:11.770Z,101216.81
2022-09-02T14:34:43.972Z,101211.19
2022-09-02T14:37:24.058Z,101200.56
2022-09-02T14:40:12.093Z,101209.34
2022-09-02T14:42:44.675Z,101191.81
2022-09-02T14:45:12.598Z,101206.88
2022-09-02T14:47:40.435Z,101198.25
2022-09-02T14:50:15.216Z,101200.91
2022-09-02T14:52:48.496Z,101195.88
2022-09-02T14:55:42.395Z,101201.44
2022-09-02T14:58:08.961Z,101186.44
2022-09-02T15:00:35.513Z,101187.13
2022-09-02T15:03:02.036Z,101182.56
2022-09-02T15:05:29.108Z,101186.88
2022-09-02T15:07:56.712Z,101185.41
2022-09-02T15:10:23.568Z,101184.31
2022-09-02T15:12:53.587Z,101188.34
2022-09-02T15:15:21.069Z,101179.53
2022-09-02T15:17:47.623Z,101168.69
2022-09-02T15:20:14.296Z,101169.19
2022-09-02T15:22:41.291Z,101170.34
2022-09-02T15:25:08.254Z,101169.59
2022-09-02T15:27:35.227Z,101166.06
2022-09-02T15:30:01.764Z,101164.94
2022-09-02T15:32:28.414Z,101152.88
2022-09-02T15:34:54.908Z,101150.31
2022-09-02T15:37:21.404Z,101152.59
2022-09-02T15:39:50.151Z,101150.31
2022-09-02T15:42:18.213Z,101149.22
2022-09-02T15:44:45.453Z,101151.09
2022-09-02T15:47:12.073Z,101137.03
2022-09-02T15:49:38.627Z,101139.69
2022-09-02T15:52:05.986Z,101139.22
2022-09-02T15:54:32.568Z,101135.94
2022-09-02T15:56:59.423Z,101149.91
2022-09-02T15:59:27.359Z,101140.91
2022-09-02T16:01:56.751Z,101137.25
2022-09-02T16:04:23.426Z,101142.09
2022-09-02T16:06:52.672Z,101141.25
2022-09-02T16:09:19.551Z,101136.31
2022-09-02T16:11:51.893Z,101132.84
2022-09-02T16:14:20.508Z,101126.53
2022-09-02T16:16:48.204Z,101116.63
2022-09-02T16:19:15.118Z,101120.22
2022-09-02T16:21:41.733Z,101115.50
2022-09-02T16:24:09.437Z,101117.28
2022-09-02T16:26:40.539Z,101112.66
2022-09-02T16:29:10.159Z,101113.31
2022-09-02T16:31:38.660Z,101112.19
2022-09-02T16:34:06.684Z,101114.78
2022-09-02T16:36:36.268Z,101106.91
2022-09-02T16:39:04.453Z,101110.19
2022-09-02T16:41:36.471Z,101107.13
2022-09-02T16:44:05.619Z,101102.56
2022-09-02T16:46:32.628Z,101105.53
2022-09-02T16:48:59.314Z,101098.31
2022-09-02T16:51:27.620Z,101104.50
2022-09-02T16:53:59.240Z,101107.56
2022-09-02T16:56:26.445Z,101093.84
2022-09-02T16:58:54.190Z,101106.63
2022-09-02T17:01:22.144Z,101098.41
2022-09-02T17:03:50.508Z,101100.78
2022-09-02T17:06:17.193Z,101095.31
2022-09-02T17:08:43.822Z,101094.31
2022-09-02T17:11:27.057Z,101092.34
2022-09-02T17:14:01.630Z,101100.06
2022-09-02T17:16:34.100Z,101096.31
2022-09-02T17:19:02.331Z,101093.78
2022-09-02T17:21:33.895Z,101085.63
2022-09-02T17:24:01.528Z,101087.63
2022-09-02T17:26:30.802Z,101088.78
2022-09-02T17:28:57.714Z,101084.63
2022-09-02T17:31:30.143Z,101084.56
2022-09-02T17:34:01.443Z,101086.97
2022-09-02T17:36:30.026Z,101086.16
2022-09-02T17:38:58.267Z,101088.63
2022-09-02T17:41:44.754Z,101078.81
2022-09-02T17:44:12.724Z,101086.28
2022-09-02T17:46:39.335Z,101092.66
2022-09-02T17:49:16.878Z,101089.06
2022-09-02T17:51:44.276Z,101093.19
2022-09-02T17:54:12.036Z,101095.91
2022-09-02T17:56:56.015Z,101103.72
2022-09-02T17:59:28.414Z,101095.00
2022-09-02T18:02:33.211Z,101099.47
2022-09-02T18:05:18.355Z,101103.97
2022-09-02T18:08:22.795Z,101092.94
2022-09-02T18:10:57.787Z,101096.16
2022-09-02T18:13:54.320Z,101085.88
2022-09-02T18:16:42.117Z,101097.72
2022-09-02T18:19:29.786Z,101097.25
2022-09-02T18:22:24.112Z,101094.31
2022-09-02T18:25:03.153Z,101093.03
2022-09-02T18:27:48.148Z,101093.84
2022-09-02T18:30:33.779Z,101089.41
2022-09-02T18:33:20.171Z,101088.47
2022-09-02T18:36:01.728Z,101084.59
2022-09-02T18:39:04.543Z,101086.97
2022-09-02T18:42:09.224Z,101091.63
2022-09-02T18:44:54.513Z,101091.34
2022-09-02T18:47:25.729Z,101094.34
2022-09-02T18:49:55.280Z,101098.28
2022-09-02T18:52:26.360Z,101102.66
2022-09-02T18:55:11.216Z,101101.69
2022-09-02T18:57:46.243Z,101100.22
2022-09-02T19:00:13.737Z,101105.28
2022-09-02T19:02:42.903Z,101101.41
2022-09-02T19:05:17.496Z,101102.78
2022-09-02T19:08:04.371Z,101104.22
2022-09-02T19:10:31.373Z,101107.91
2022-09-02T19:13:00.177Z,101116.53
2022-09-02T19:15:27.433Z,101115.00
2022-09-02T19:17:53.987Z,101114.81
2022-09-02T19:20:20.523Z,101117.41
2022-09-02T19:22:52.680Z,101118.56
2022-09-02T19:25:23.068Z,101111.66
2022-09-02T19:27:50.806Z,101106.88
2022-09-02T19:30:20.219Z,101115.69
2022-09-02T19:32:49.942Z,101117.91
2022-09-02T19:35:19.811Z,101111.88
2022-09-02T19:37:51.282Z,101111.72
2022-09-02T19:40:24.599Z,101113.94
2022-09-02T19:42:52.964Z,101107.38
2022-09-02T19:45:22.868Z,101115.03
2022-09-02T19:48:06.419Z,101118.28
2022-09-02T19:50:36.033Z,101108.47
2022-09-02T19:53:02.750Z,101123.34
2022-09-02T19:55:29.692Z,101113.44
2022-09-02T19:57:56.203Z,101109.47
2022-09-02T20:00:22.970Z,101102.69
2022-09-02T20:02:51.007Z,101113.72
2022-09-02T20:05:17.720Z,101116.03
2022-09-02T20:07:44.283Z,101125.22
2022-09-02T20:10:10.840Z,101112.19
2022-09-02T20:12:37.448Z,101120.06
2022-09-02T20:15:06.643Z,101122.59
2022-09-02T20:17:33.419Z,101124.41
2022-09-02T20:20:11.801Z,101117.72
2022-09-02T20:22:38.381Z,101113.25
2022-09-02T20:25:05.141Z,101112.91
2022-09-02T20:27:40.223Z,101118.69
2022-09-02T20:30:12.724Z,101119.09
2022-09-02T20:32:58.917Z,101107.81
2022-09-02T20:35:50.680Z,101121.31
2022-09-02T20:38:35.372Z,101106.78
2022-09-02T20:41:33.910Z,101108.19
2022-09-02T20:44:13.157Z,101112.69
2022-09-02T20:46:45.826Z,101100.28
2022-09-02T20:49:24.985Z,101110.06
2022-09-02T20:52:13.338Z,101110.88
2022-09-02T20:54:48.645Z,101096.75
2022-09-02T20:57:21.497Z,101101.53
2022-09-02T21:00:03.792Z,101112.22
2022-09-02T21:02:35.735Z,101106.63
2022-09-02T21:05:11.252Z,101110.28
2022-09-02T21:07:45.397Z,101109.47
2022-09-02T21:10:29.987Z,101105.81
2022-09-02T21:13:06.665Z,101100.44
2022-09-02T21:15:45.522Z,101089.94
2022-09-02T21:18:37.801Z,101102.25
2022-09-02T21:21:25.943Z,101100.47
2022-09-02T21:23:58.168Z,101104.41
2022-09-02T21:27:03.464Z,101094.41
2022-09-02T21:29:44.348Z,101105.09
2022-09-02T21:32:19.352Z,101102.34
2022-09-02T21:35:08.053Z,101111.84
2022-09-02T21:37:39.518Z,101112.69
2022-09-02T21:40:30.430Z,101104.63
2022-09-02T21:43:21.628Z,101113.31
2022-09-02T21:46:15.100Z,101106.25
2022-09-02T21:48:55.200Z,101098.50
2022-09-02T21:51:57.368Z,101097.69
2022-09-02T21:54:43.725Z,101107.22
2022-09-02T21:57:56.639Z,101114.44
2022-09-02T22:00:23.878Z,101100.38
2022-09-02T22:03:16.238Z,101110.63
2022-09-02T22:06:27.140Z,101104.75
2022-09-02T22:09:06.257Z,101100.56
2022-09-02T22:11:40.244Z,101097.31
2022-09-02T22:14:15.925Z,101101.50
2022-09-02T22:17:01.312Z,101097.91
2022-09-02T22:19:31.671Z,101096.75
2022-09-02T22:22:46.777Z,101101.19
2022-09-02T22:25:16.828Z,101094.66
2022-09-02T22:28:09.744Z,101097.97
2022-09-02T22:30:41.837Z,101085.72
2022-09-02T22:33:13.683Z,101095.81
2022-09-02T22:35:50.569Z,101100.19
2022-09-02T22:38:27.604Z,101101.19
2022-09-02T22:41:27.685Z,101090.56
2022-09-02T22:44:09.399Z,101098.94
2022-09-02T22:47:42.262Z,101097.44
2022-09-02T22:50:32.407Z,101096.56
2022-09-02T22:52:58.915Z,101090.91
2022-09-02T22:55:53.074Z,101085.81
2022-09-02T22:58:44.416Z,101080.88
2022-09-02T23:01:15.685Z,101080.59
2022-09-02T23:04:02.348Z,101076.91
2022-09-02T23:06:31.571Z,101069.41
2022-09-02T23:09:09.618Z,101077.78
2022-09-02T23:11:54.600Z,101081.06
2022-09-02T23:14:26.589Z,101073.88
2022-09-02T23:17:23.588Z,101069.06
2022-09-02T23:20:08.636Z,101071.59
2022-09-02T23:23:08.314Z,101071.50
2022-09-02T23:25:51.968Z,101068.66
2022-09-02T23:28:34.907Z,101065.19
2022-09-02T23:31:39.224Z,101064.72
2022-09-02T23:34:30.801Z,101064.19
2022-09-02T23:37:17.336Z,101066.78
2022-09-02T23:40:25.836Z,101071.44
2022-09-02T23:42:53.143Z,101064.94
2022-09-02T23:45:26.871Z,101055.09
2022-09-02T23:48:05.358Z,101057.59
2022-09-02T23:50:37.651Z,101045.81
2022-09-02T23:53:22.783Z,101061.13
2022-09-02T23:56:24.432Z,101064.28
2022-09-02T23:59:27.343Z,101054.44
